sensor_id;sensor_type;location;lat;lon;timestamp;pressure;altitude;pressure_sealevel;temperature;humidity
47280;BME280;34064;44.942;0.008;2022-12-18T00:01:24;99533.72;;;2.84;61.34
47280;BME280;34064;44.942;0.008;2022-12-18T00:03:51;99530.19;;;2.85;60.73
47280;BME280;34064;44.942;0.008;2022-12-18T00:06:19;99531.06;;;2.86;60.86
47280;BME280;34064;44.942;0.008;2022-12-18T00:08:46;99517.94;;;2.86;60.93
47280;BME280;34064;44.942;0.008;2022-12-18T00:11:15;99526.66;;;2.86;61.10
47280;BME280;34064;44.942;0.008;2022-12-18T00:13:42;99523.13;;;2.87;61.21
47280;BME280;34064;44.942;0.008;2022-12-18T00:16:14;99530.25;;;2.84;61.25
47280;BME280;34064;44.942;0.008;2022-12-18T00:18:41;99523.22;;;2.84;60.91
47280;BME280;34064;44.942;0.008;2022-12-18T00:21:09;99525.00;;;2.84;61.41
47280;BME280;34064;44.942;0.008;2022-12-18T00:23:37;99522.31;;;2.85;60.79
47280;BME280;34064;44.942;0.008;2022-12-18T00:26:10;99525.00;;;2.84;61.25
47280;BME280;34064;44.942;0.008;2022-12-18T00:28:37;99532.81;;;2.85;60.94
47280;BME280;34064;44.942;0.008;2022-12-18T00:31:09;99535.41;;;2.87;61.05
47280;BME280;34064;44.942;0.008;2022-12-18T00:33:36;99535.41;;;2.87;61.22
47280;BME280;34064;44.942;0.008;2022-12-18T00:36:07;99530.25;;;2.84;61.13
47280;BME280;34064;44.942;0.008;2022-12-18T00:38:34;99526.72;;;2.85;61.10
47280;BME280;34064;44.942;0.008;2022-12-18T00:41:01;99528.44;;;2.86;61.27
47280;BME280;34064;44.942;0.008;2022-12-18T00:43:28;99533.78;;;2.83;61.40
47280;BME280;34064;44.942;0.008;2022-12-18T00:45:55;99534.59;;;2.85;61.44
47280;BME280;34064;44.942;0.008;2022-12-18T00:48:21;99543.34;;;2.84;61.38
47280;BME280;34064;44.942;0.008;2022-12-18T00:50:48;99530.25;;;2.84;61.92
47280;BME280;34064;44.942;0.008;2022-12-18T00:53:15;99532.03;;;2.83;61.61
47280;BME280;34064;44.942;0.008;2022-12-18T00:55:42;99530.34;;;2.80;61.68
47280;BME280;34064;44.942;0.008;2022-12-18T00:58:10;99529.41;;;2.83;61.53
47280;BME280;34064;44.942;0.008;2022-12-18T01:00:36;99536.34;;;2.84;61.15
47280;BME280;34064;44.942;0.008;2022-12-18T01:03:04;99545.94;;;2.85;61.57
47280;BME280;34064;44.942;0.008;2022-12-18T01:05:31;99538.94;;;2.86;61.20
47280;BME280;34064;44.942;0.008;2022-12-18T01:07:58;99546.88;;;2.83;61.64
47280;BME280;34064;44.942;0.008;2022-12-18T01:10:25;99547.91;;;2.78;62.10
47280;BME280;34064;44.942;0.008;2022-12-18T01:12:52;99539.84;;;2.85;61.42
47280;BME280;34064;44.942;0.008;2022-12-18T01:15:19;99544.19;;;2.86;61.25
47280;BME280;34064;44.942;0.008;2022-12-18T01:17:45;99548.53;;;2.87;61.65
47280;BME280;34064;44.942;0.008;2022-12-18T01:20:12;99545.91;;;2.87;61.26
47280;BME280;34064;44.942;0.008;2022-12-18T01:22:39;99551.16;;;2.87;61.55
47280;BME280;34064;44.942;0.008;2022-12-18T01:25:05;99550.25;;;2.88;61.63
47280;BME280;34064;44.942;0.008;2022-12-18T01:27:34;99557.28;;;2.86;61.49
47280;BME280;34064;44.942;0.008;2022-12-18T01:30:00;99541.56;;;2.84;61.91
47280;BME280;34064;44.942;0.008;2022-12-18T01:32:28;99547.72;;;2.85;61.63
47280;BME280;34064;44.942;0.008;2022-12-18T01:34:55;99549.44;;;2.86;61.58
47280;BME280;34064;44.942;0.008;2022-12-18T01:37:21;99559.09;;;2.84;61.57
47280;BME280;34064;44.942;0.008;2022-12-18T01:39:47;99556.47;;;2.84;61.52
47280;BME280;34064;44.942;0.008;2022-12-18T01:42:16;99557.31;;;2.84;61.73
47280;BME280;34064;44.942;0.008;2022-12-18T01:44:59;99563.44;;;2.85;61.70
47280;BME280;34064;44.942;0.008;2022-12-18T01:47:29;99560.81;;;2.85;61.53
47280;BME280;34064;44.942;0.008;2022-12-18T01:49:58;99566.97;;;2.84;61.53
47280;BME280;34064;44.942;0.008;2022-12-18T01:52:28;99572.13;;;2.87;61.63
47280;BME280;34064;44.942;0.008;2022-12-18T01:54:55;99562.56;;;2.84;61.47
47280;BME280;34064;44.942;0.008;2022-12-18T01:57:23;99569.69;;;2.80;61.79
47280;BME280;34064;44.942;0.008;2022-12-18T01:59:52;99567.19;;;2.77;61.98
47280;BME280;34064;44.942;0.008;2022-12-18T02:02:20;99560.22;;;2.76;61.90
47280;BME280;34064;44.942;0.008;2022-12-18T02:04:47;99562.88;;;2.75;62.00
47280;BME280;34064;44.942;0.008;2022-12-18T02:07:17;99563.84;;;2.72;62.20
47280;BME280;34064;44.942;0.008;2022-12-18T02:10:15;99564.81;;;2.70;62.32
47280;BME280;34064;44.942;0.008;2022-12-18T02:13:01;99567.47;;;2.68;62.31
47280;BME280;34064;44.942;0.008;2022-12-18T02:15:44;99566.59;;;2.68;62.06
47280;BME280;34064;44.942;0.008;2022-12-18T02:18:38;99563.97;;;2.69;61.84
47280;BME280;34064;44.942;0.008;2022-12-18T02:28:38;99556.19;;;2.66;63.41
47280;BME280;34064;44.942;0.008;2022-12-18T02:31:10;99562.13;;;2.71;62.65
47280;BME280;34064;44.942;0.008;2022-12-18T02:33:37;99554.22;;;2.73;62.65
47280;BME280;34064;44.942;0.008;2022-12-18T02:36:06;99552.38;;;2.75;62.74
47280;BME280;34064;44.942;0.008;2022-12-18T02:38:35;99548.00;;;2.75;62.86
47280;BME280;34064;44.942;0.008;2022-12-18T02:41:02;99560.22;;;2.76;62.73
47280;BME280;34064;44.942;0.008;2022-12-18T02:43:30;99545.28;;;2.78;62.80
47280;BME280;34064;44.942;0.008;2022-12-18T02:45:59;99554.97;;;2.76;62.94
47280;BME280;34064;44.942;0.008;2022-12-18T02:48:33;99551.44;;;2.77;62.82
47280;BME280;34064;44.942;0.008;2022-12-18T02:56:46;99559.41;;;2.74;62.94
47280;BME280;34064;44.942;0.008;2022-12-18T02:59:30;99553.47;;;2.69;63.67
47280;BME280;34064;44.942;0.008;2022-12-18T03:02:09;99550.84;;;2.69;63.18
47280;BME280;34064;44.942;0.008;2022-12-18T03:04:55;99552.53;;;2.70;63.54
47280;BME280;34064;44.942;0.008;2022-12-18T03:07:53;99543.66;;;2.74;63.55
47280;BME280;34064;44.942;0.008;2022-12-18T03:10:27;99547.09;;;2.76;63.61
47280;BME280;34064;44.942;0.008;2022-12-18T03:13:07;99546.06;;;2.80;63.72
47280;BME280;34064;44.942;0.008;2022-12-18T03:15:41;99539.69;;;2.89;63.78
47280;BME280;34064;44.942;0.008;2022-12-18T03:18:34;99541.41;;;2.90;63.78
47280;BME280;34064;44.942;0.008;2022-12-18T03:21:02;99532.56;;;2.93;63.69
47280;BME280;34064;44.942;0.008;2022-12-18T03:23:33;99536.91;;;2.94;64.54
47280;BME280;34064;44.942;0.008;2022-12-18T03:26:06;99527.06;;;3.01;64.47
47280;BME280;34064;44.942;0.008;2022-12-18T03:28:42;99522.34;;;3.10;64.57
47280;BME280;34064;44.942;0.008;2022-12-18T03:31:11;99517.03;;;3.12;64.80
47280;BME280;34064;44.942;0.008;2022-12-18T03:33:43;99523.84;;;3.18;64.90
47280;BME280;34064;44.942;0.008;2022-12-18T03:36:12;99517.56;;;3.22;64.87
47280;BME280;34064;44.942;0.008;2022-12-18T03:38:38;99516.44;;;3.29;64.86
47280;BME280;34064;44.942;0.008;2022-12-18T03:41:31;99512.69;;;3.36;65.03
47280;BME280;34064;44.942;0.008;2022-12-18T03:47:03;99508.63;;;3.53;65.49
47280;BME280;34064;44.942;0.008;2022-12-18T03:49:45;99511.81;;;3.61;66.05
47280;BME280;34064;44.942;0.008;2022-12-18T03:54:48;99528.97;;;3.71;66.03
47280;BME280;34064;44.942;0.008;2022-12-18T03:57:21;99522.66;;;3.75;65.91
47280;BME280;34064;44.942;0.008;2022-12-18T03:59:50;99524.38;;;3.77;66.95
47280;BME280;34064;44.942;0.008;2022-12-18T04:02:18;99524.03;;;3.86;66.39
47280;BME280;34064;44.942;0.008;2022-12-18T04:04:47;99524.72;;;3.91;66.50
47280;BME280;34064;44.942;0.008;2022-12-18T04:07:15;99526.41;;;3.92;66.52
47280;BME280;34064;44.942;0.008;2022-12-18T04:09:42;99520.25;;;3.93;66.79
47280;BME280;34064;44.942;0.008;2022-12-18T04:12:10;99514.88;;;3.96;66.55
47280;BME280;34064;44.942;0.008;2022-12-18T04:14:36;99518.38;;;3.97;66.43
47280;BME280;34064;44.942;0.008;2022-12-18T04:17:03;99525.41;;;3.96;67.23
47280;BME280;34064;44.942;0.008;2022-12-18T04:19:29;99527.06;;;3.99;66.93
47280;BME280;34064;44.942;0.008;2022-12-18T04:21:55;99533.19;;;3.99;67.09
47280;BME280;34064;44.942;0.008;2022-12-18T04:24:22;99532.03;;;4.06;67.29
47280;BME280;34064;44.942;0.008;2022-12-18T04:26:48;99528.59;;;4.04;66.94
47280;BME280;34064;44.942;0.008;2022-12-18T04:29:15;99530.25;;;4.07;66.85
47280;BME280;34064;44.942;0.008;2022-12-18T04:31:41;99536.38;;;4.08;66.93
47280;BME280;34064;44.942;0.008;2022-12-18T04:34:07;99540.75;;;4.07;67.12
47280;BME280;34064;44.942;0.008;2022-12-18T04:36:34;99539.66;;;4.13;66.94
47280;BME280;34064;44.942;0.008;2022-12-18T04:39:00;99534.41;;;4.13;67.11
47280;BME280;34064;44.942;0.008;2022-12-18T04:41:26;99545.66;;;4.16;67.26
47280;BME280;34064;44.942;0.008;2022-12-18T04:43:53;99553.63;;;4.15;67.54
47280;BME280;34064;44.942;0.008;2022-12-18T04:46:19;99556.25;;;4.15;67.54
47280;BME280;34064;44.942;0.008;2022-12-18T04:48:46;99572.84;;;4.17;67.46
47280;BME280;34064;44.942;0.008;2022-12-18T04:51:13;99571.00;;;4.19;67.15
47280;BME280;34064;44.942;0.008;2022-12-18T04:53:39;99555.16;;;4.20;67.39
47280;BME280;34064;44.942;0.008;2022-12-18T04:56:11;99542.84;;;4.21;67.57
47280;BME280;34064;44.942;0.008;2022-12-18T04:58:39;99541.84;;;4.25;67.39
47280;BME280;34064;44.942;0.008;2022-12-18T05:01:07;99550.53;;;4.27;67.50
47280;BME280;34064;44.942;0.008;2022-12-18T05:03:36;99553.03;;;4.30;67.60
47280;BME280;34064;44.942;0.008;2022-12-18T05:06:04;99561.06;;;4.27;68.22
47280;BME280;34064;44.942;0.008;2022-12-18T05:08:30;99564.50;;;4.29;67.91
47280;BME280;34064;44.942;0.008;2022-12-18T05:11:06;99565.25;;;4.31;67.51
47280;BME280;34064;44.942;0.008;2022-12-18T05:13:33;99560.81;;;4.33;67.76
47280;BME280;34064;44.942;0.008;2022-12-18T05:16:00;99555.53;;;4.33;67.98
47280;BME280;34064;44.942;0.008;2022-12-18T05:18:26;99562.53;;;4.34;67.72
47280;BME280;34064;44.942;0.008;2022-12-18T05:20:53;99575.56;;;4.37;67.73
47280;BME280;34064;44.942;0.008;2022-12-18T05:23:21;99564.13;;;4.39;67.85
47280;BME280;34064;44.942;0.008;2022-12-18T05:25:56;99562.34;;;4.39;68.02
47280;BME280;34064;44.942;0.008;2022-12-18T05:28:25;99562.25;;;4.42;67.95
47280;BME280;34064;44.942;0.008;2022-12-18T05:30:53;99571.88;;;4.42;68.12
47280;BME280;34064;44.942;0.008;2022-12-18T05:33:20;99567.44;;;4.44;68.07
47280;BME280;34064;44.942;0.008;2022-12-18T05:35:52;99568.28;;;4.44;68.13
47280;BME280;34064;44.942;0.008;2022-12-18T05:38:20;99561.97;;;4.48;68.02
47280;BME280;34064;44.942;0.008;2022-12-18T05:40:48;99565.47;;;4.49;67.82
47280;BME280;34064;44.942;0.008;2022-12-18T05:43:15;99567.19;;;4.50;68.21
47280;BME280;34064;44.942;0.008;2022-12-18T05:45:42;99573.97;;;4.56;68.08
47280;BME280;34064;44.942;0.008;2022-12-18T05:48:09;99570.53;;;4.53;67.98
47280;BME280;34064;44.942;0.008;2022-12-18T05:50:36;99575.75;;;4.55;68.05
47280;BME280;34064;44.942;0.008;2022-12-18T05:53:04;99578.25;;;4.58;68.13
47280;BME280;34064;44.942;0.008;2022-12-18T05:55:36;99576.50;;;4.59;68.20
47280;BME280;34064;44.942;0.008;2022-12-18T05:58:04;99571.22;;;4.59;68.33
47280;BME280;34064;44.942;0.008;2022-12-18T06:00:31;99579.00;;;4.62;68.21
47280;BME280;34064;44.942;0.008;2022-12-18T06:02:58;99570.94;;;4.66;68.34
47280;BME280;34064;44.942;0.008;2022-12-18T06:05:25;99572.50;;;4.71;68.30
47280;BME280;34064;44.942;0.008;2022-12-18T06:07:51;99566.44;;;4.68;68.52
47280;BME280;34064;44.942;0.008;2022-12-18T06:10:18;99570.03;;;4.67;68.33
47280;BME280;34064;44.942;0.008;2022-12-18T06:12:44;99575.22;;;4.69;68.29
47280;BME280;34064;44.942;0.008;2022-12-18T06:15:11;99570.59;;;4.74;68.41
47280;BME280;34064;44.942;0.008;2022-12-18T06:17:37;99584.75;;;4.72;68.17
47280;BME280;34064;44.942;0.008;2022-12-18T06:20:05;99582.06;;;4.73;68.51
47280;BME280;34064;44.942;0.008;2022-12-18T06:22:33;99582.84;;;4.75;68.36
47280;BME280;34064;44.942;0.008;2022-12-18T06:24:59;99576.66;;;4.76;68.42
47280;BME280;34064;44.942;0.008;2022-12-18T06:27:26;99578.28;;;4.80;68.49
47280;BME280;34064;44.942;0.008;2022-12-18T06:29:52;99581.75;;;4.81;68.48
47280;BME280;34064;44.942;0.008;2022-12-18T06:32:18;99573.84;;;4.81;68.63
47280;BME280;34064;44.942;0.008;2022-12-18T06:34:45;99577.22;;;4.84;68.68
47280;BME280;34064;44.942;0.008;2022-12-18T06:37:11;99575.31;;;4.88;68.72
47280;BME280;34064;44.942;0.008;2022-12-18T06:39:37;99565.50;;;4.92;68.45
47280;BME280;34064;44.942;0.008;2022-12-18T06:42:04;99560.13;;;4.95;68.68
47280;BME280;34064;44.942;0.008;2022-12-18T06:44:31;99554.94;;;4.93;68.89
47280;BME280;34064;44.942;0.008;2022-12-18T06:46:57;99551.19;;;4.99;68.82
47280;BME280;34064;44.942;0.008;2022-12-18T06:49:23;99549.28;;;5.03;68.99
47280;BME280;34064;44.942;0.008;2022-12-18T06:51:50;99551.97;;;5.01;69.06
47280;BME280;34064;44.942;0.008;2022-12-18T06:54:16;99556.19;;;5.05;69.02
47280;BME280;34064;44.942;0.008;2022-12-18T06:56:44;99543.88;;;5.06;68.90
47280;BME280;34064;44.942;0.008;2022-12-18T06:59:12;99548.22;;;5.07;68.89
47280;BME280;34064;44.942;0.008;2022-12-18T07:01:38;99548.94;;;5.10;68.97
47280;BME280;34064;44.942;0.008;2022-12-18T07:04:05;99554.16;;;5.12;68.86
47280;BME280;34064;44.942;0.008;2022-12-18T07:06:31;99548.75;;;5.15;68.91
47280;BME280;34064;44.942;0.008;2022-12-18T07:08:57;99553.09;;;5.16;68.98
47280;BME280;34064;44.942;0.008;2022-12-18T07:11:24;99549.53;;;5.17;69.05
47280;BME280;34064;44.942;0.008;2022-12-18T07:13:51;99545.88;;;5.21;69.30
47280;BME280;34064;44.942;0.008;2022-12-18T07:16:19;99549.22;;;5.25;69.14
47280;BME280;34064;44.942;0.008;2022-12-18T07:18:46;99537.56;;;5.30;69.21
47280;BME280;34064;44.942;0.008;2022-12-18T07:21:15;99543.63;;;5.33;69.18
47280;BME280;34064;44.942;0.008;2022-12-18T07:23:43;99533.94;;;5.33;69.11
47280;BME280;34064;44.942;0.008;2022-12-18T07:26:12;99542.53;;;5.38;69.23
47280;BME280;34064;44.942;0.008;2022-12-18T07:28:40;99545.19;;;5.37;69.44
47280;BME280;34064;44.942;0.008;2022-12-18T07:31:09;99536.25;;;5.41;69.04
47280;BME280;34064;44.942;0.008;2022-12-18T07:33:36;99530.97;;;5.41;69.16
47280;BME280;34064;44.942;0.008;2022-12-18T07:36:04;99538.59;;;5.47;69.41
47280;BME280;34064;44.942;0.008;2022-12-18T07:38:32;99534.25;;;5.46;69.60
47280;BME280;34064;44.942;0.008;2022-12-18T07:41:11;99537.56;;;5.51;69.46
47280;BME280;34064;44.942;0.008;2022-12-18T07:43:39;99539.13;;;5.55;69.51
47280;BME280;34064;44.942;0.008;2022-12-18T07:46:06;99533.59;;;5.61;69.51
47280;BME280;34064;44.942;0.008;2022-12-18T07:48:32;99528.16;;;5.65;69.24
47280;BME280;34064;44.942;0.008;2022-12-18T07:51:04;99527.13;;;5.69;69.33
47280;BME280;34064;44.942;0.008;2022-12-18T07:53:31;99535.03;;;5.69;69.38
47280;BME280;34064;44.942;0.008;2022-12-18T07:56:00;99536.47;;;5.76;69.64
47280;BME280;34064;44.942;0.008;2022-12-18T07:58:27;99546.09;;;5.77;69.60
47280;BME280;34064;44.942;0.008;2022-12-18T08:00:54;99543.31;;;5.80;69.41
47280;BME280;34064;44.942;0.008;2022-12-18T08:03:27;99544.88;;;5.84;69.38
47280;BME280;34064;44.942;0.008;2022-12-18T08:05:59;99535.03;;;5.88;69.49
47280;BME280;34064;44.942;0.008;2022-12-18T08:08:26;99543.66;;;5.91;69.54
47280;BME280;34064;44.942;0.008;2022-12-18T08:10:52;99551.56;;;5.91;69.67
47280;BME280;34064;44.942;0.008;2022-12-18T08:13:19;99550.53;;;5.96;69.47
47280;BME280;34064;44.942;0.008;2022-12-18T08:15:45;99551.19;;;6.01;69.47
47280;BME280;34064;44.942;0.008;2022-12-18T08:18:11;99546.72;;;6.03;69.65
47280;BME280;34064;44.942;0.008;2022-12-18T08:20:38;99543.00;;;6.07;69.66
47280;BME280;34064;44.942;0.008;2022-12-18T08:23:04;99542.63;;;6.15;69.72
47280;BME280;34064;44.942;0.008;2022-12-18T08:25:30;99546.16;;;6.15;69.78
47280;BME280;34064;44.942;0.008;2022-12-18T08:27:57;99548.66;;;6.18;69.78
47280;BME280;34064;44.942;0.008;2022-12-18T08:30:23;99548.34;;;6.24;69.71
47280;BME280;34064;44.942;0.008;2022-12-18T08:32:52;99549.91;;;6.29;69.67
47280;BME280;34064;44.942;0.008;2022-12-18T08:35:20;99545.28;;;6.34;69.98
47280;BME280;34064;44.942;0.008;2022-12-18T08:37:46;99540.63;;;6.39;69.94
47280;BME280;34064;44.942;0.008;2022-12-18T08:40:13;99538.47;;;6.47;69.96
47280;BME280;34064;44.942;0.008;2022-12-18T08:42:39;99539.91;;;6.54;69.78
47280;BME280;34064;44.942;0.008;2022-12-18T08:45:24;99534.31;;;6.61;69.70
47280;BME280;34064;44.942;0.008;2022-12-18T08:47:50;99532.38;;;6.64;69.73
47280;BME280;34064;44.942;0.008;2022-12-18T08:50:17;99518.72;;;6.74;69.85
47280;BME280;34064;44.942;0.008;2022-12-18T08:52:43;99518.44;;;6.80;69.67
47280;BME280;34064;44.942;0.008;2022-12-18T08:55:10;99504.84;;;6.87;69.57
47280;BME280;34064;44.942;0.008;2022-12-18T08:57:36;99509.97;;;6.91;69.58
47280;BME280;34064;44.942;0.008;2022-12-18T09:00:03;99510.53;;;6.97;69.60
47280;BME280;34064;44.942;0.008;2022-12-18T09:02:30;99509.38;;;7.03;69.53
47280;BME280;34064;44.942;0.008;2022-12-18T09:04:56;99503.75;;;7.09;69.58
47280;BME280;34064;44.942;0.008;2022-12-18T09:07:23;99508.03;;;7.12;69.36
47280;BME280;34064;44.942;0.008;2022-12-18T09:09:49;99491.84;;;7.18;69.45
47280;BME280;34064;44.942;0.008;2022-12-18T09:12:15;99482.00;;;7.22;69.58
47280;BME280;34064;44.942;0.008;2022-12-18T09:14:42;99478.88;;;7.31;69.47
47280;BME280;34064;44.942;0.008;2022-12-18T09:17:08;99483.69;;;7.40;69.42
47280;BME280;34064;44.942;0.008;2022-12-18T09:19:35;99478.06;;;7.46;69.29
47280;BME280;34064;44.942;0.008;2022-12-18T09:22:01;99470.56;;;7.55;69.27
47280;BME280;34064;44.942;0.008;2022-12-18T09:24:28;99479.19;;;7.58;69.15
47280;BME280;34064;44.942;0.008;2022-12-18T09:26:54;99476.06;;;7.68;69.06
47280;BME280;34064;44.942;0.008;2022-12-18T09:29:21;99484.75;;;7.70;69.13
47280;BME280;34064;44.942;0.008;2022-12-18T09:31:48;99482.66;;;7.76;69.04
47280;BME280;34064;44.942;0.008;2022-12-18T09:34:15;99486.56;;;7.85;68.95
47280;BME280;34064;44.942;0.008;2022-12-18T09:36:42;99481.97;;;7.89;68.88
47280;BME280;34064;44.942;0.008;2022-12-18T09:39:09;99487.25;;;7.89;68.79
47280;BME280;34064;44.942;0.008;2022-12-18T09:41:43;99480.72;;;7.96;68.70
47280;BME280;34064;44.942;0.008;2022-12-18T09:44:39;99483.50;;;7.93;68.83
47280;BME280;34064;44.942;0.008;2022-12-18T09:47:20;99478.06;;;7.96;68.63
47280;BME280;34064;44.942;0.008;2022-12-18T09:50:37;99474.38;;;7.99;68.63
47280;BME280;34064;44.942;0.008;2022-12-18T09:52:41;99482.66;;;8.08;68.44
47280;BME280;34064;44.942;0.008;2022-12-18T09:55:24;99472.53;;;8.17;68.33
47280;BME280;34064;44.942;0.008;2022-12-18T09:57:57;99466.97;;;8.21;68.12
47280;BME280;34064;44.942;0.008;2022-12-18T10:00:25;99469.16;;;8.29;67.99
47280;BME280;34064;44.942;0.008;2022-12-18T10:02:55;99469.00;;;8.32;67.99
47280;BME280;34064;44.942;0.008;2022-12-18T10:05:55;99469.31;;;8.42;67.87
47280;BME280;34064;44.942;0.008;2022-12-18T10:08:42;99477.00;;;8.47;67.00
47280;BME280;34064;44.942;0.008;2022-12-18T10:11:51;99460.22;;;8.48;67.27
47280;BME280;34064;44.942;0.008;2022-12-18T10:14:58;99467.63;;;8.57;67.04
47280;BME280;34064;44.942;0.008;2022-12-18T10:20:51;99433.25;;;8.71;67.00
47280;BME280;34064;44.942;0.008;2022-12-18T10:26:16;99431.69;;;8.98;66.44
47280;BME280;34064;44.942;0.008;2022-12-18T10:28:44;99432.38;;;9.01;66.44
47280;BME280;34064;44.942;0.008;2022-12-18T10:33:43;99439.22;;;9.20;66.10
47280;BME280;34064;44.942;0.008;2022-12-18T10:36:10;99437.13;;;9.25;65.92
47280;BME280;34064;44.942;0.008;2022-12-18T10:38:36;99429.53;;;9.33;65.93
47280;BME280;34064;44.942;0.008;2022-12-18T10:43:44;99426.91;;;9.48;65.41
47280;BME280;34064;44.942;0.008;2022-12-18T10:51:34;99416.44;;;9.74;65.00
47280;BME280;34064;44.942;0.008;2022-12-18T10:54:18;99415.88;;;9.83;65.05
47280;BME280;34064;44.942;0.008;2022-12-18T10:56:47;99413.38;;;9.94;64.99
47280;BME280;34064;44.942;0.008;2022-12-18T10:59:16;99401.94;;;10.07;64.82
47280;BME280;34064;44.942;0.008;2022-12-18T11:01:53;99401.34;;;10.16;64.54
47280;BME280;34064;44.942;0.008;2022-12-18T11:04:31;99388.22;;;10.27;64.40
47280;BME280;34064;44.942;0.008;2022-12-18T11:07:05;99396.53;;;10.36;63.64
47280;BME280;34064;44.942;0.008;2022-12-18T11:09:36;99389.81;;;10.44;63.68
47280;BME280;34064;44.942;0.008;2022-12-18T11:12:17;99376.03;;;10.52;63.46
47280;BME280;34064;44.942;0.008;2022-12-18T11:14:54;99379.84;;;10.61;63.23
47280;BME280;34064;44.942;0.008;2022-12-18T11:17:42;99369.22;;;10.74;62.58
47280;BME280;34064;44.942;0.008;2022-12-18T11:20:30;99358.19;;;10.80;62.92
47280;BME280;34064;44.942;0.008;2022-12-18T11:23:10;99355.75;;;10.90;62.80
47280;BME280;34064;44.942;0.008;2022-12-18T11:25:37;99345.22;;;11.01;62.41
47280;BME280;34064;44.942;0.008;2022-12-18T11:31:16;99334.97;;;11.34;61.88
47280;BME280;34064;44.942;0.008;2022-12-18T11:33:56;99337.09;;;11.42;61.65
47280;BME280;34064;44.942;0.008;2022-12-18T11:36:24;99324.03;;;11.63;60.52
47280;BME280;34064;44.942;0.008;2022-12-18T11:38:54;99329.44;;;11.74;60.53
47280;BME280;34064;44.942;0.008;2022-12-18T11:41:41;99316.91;;;11.88;60.32
47280;BME280;34064;44.942;0.008;2022-12-18T11:47:21;99307.75;;;11.92;60.42
47280;BME280;34064;44.942;0.008;2022-12-18T11:49:52;99304.34;;;11.90;60.17
47280;BME280;34064;44.942;0.008;2022-12-18T11:52:31;99306.72;;;11.81;59.72
47280;BME280;34064;44.942;0.008;2022-12-18T11:55:04;99299.69;;;11.80;60.10
47280;BME280;34064;44.942;0.008;2022-12-18T11:57:47;99289.59;;;11.97;59.76
47280;BME280;34064;44.942;0.008;2022-12-18T12:00:19;99281.91;;;12.05;59.41
47280;BME280;34064;44.942;0.008;2022-12-18T12:22:24;99233.59;;;12.91;57.75
47280;BME280;34064;44.942;0.008;2022-12-18T12:25:18;99233.88;;;12.88;57.62
47280;BME280;34064;44.942;0.008;2022-12-18T12:30:44;99234.34;;;13.04;57.67
47280;BME280;34064;44.942;0.008;2022-12-18T12:33:39;99214.19;;;13.23;57.62
47280;BME280;34064;44.942;0.008;2022-12-18T12:36:46;99208.22;;;13.31;56.94
47280;BME280;34064;44.942;0.008;2022-12-18T12:39:23;99217.06;;;13.31;57.40
47280;BME280;34064;44.942;0.008;2022-12-18T12:41:53;99214.25;;;13.33;57.22
47280;BME280;34064;44.942;0.008;2022-12-18T12:44:43;99214.41;;;13.43;57.07
47280;BME280;34064;44.942;0.008;2022-12-18T12:47:25;99206.38;;;13.54;56.86
47280;BME280;34064;44.942;0.008;2022-12-18T12:49:52;99201.13;;;13.52;56.93
47280;BME280;34064;44.942;0.008;2022-12-18T12:52:33;99202.25;;;13.50;56.67
47280;BME280;34064;44.942;0.008;2022-12-18T12:55:03;99208.31;;;13.52;56.38
47280;BME280;34064;44.942;0.008;2022-12-18T12:57:47;99208.06;;;13.55;56.42
47280;BME280;34064;44.942;0.008;2022-12-18T13:00:18;99206.38;;;13.54;56.14
47280;BME280;34064;44.942;0.008;2022-12-18T13:05:54;99206.97;;;13.57;55.59
47280;BME280;34064;44.942;0.008;2022-12-18T13:08:28;99200.16;;;13.53;55.65
47280;BME280;34064;44.942;0.008;2022-12-18T13:10:57;99210.25;;;13.50;55.50
47280;BME280;34064;44.942;0.008;2022-12-18T13:13:53;99203.50;;;13.46;55.50
47280;BME280;34064;44.942;0.008;2022-12-18T13:16:23;99212.72;;;13.41;55.78
47280;BME280;34064;44.942;0.008;2022-12-18T13:18:53;99213.06;;;13.48;55.06
47280;BME280;34064;44.942;0.008;2022-12-18T13:21:29;99209.66;;;13.46;55.50
47280;BME280;34064;44.942;0.008;2022-12-18T13:24:10;99209.06;;;13.43;55.83
47280;BME280;34064;44.942;0.008;2022-12-18T13:26:40;99209.06;;;13.43;55.68
47280;BME280;34064;44.942;0.008;2022-12-18T13:29:06;99211.00;;;13.40;55.52
47280;BME280;34064;44.942;0.008;2022-12-18T13:34:28;99211.97;;;13.39;55.74
47280;BME280;34064;44.942;0.008;2022-12-18T13:37:36;99211.22;;;13.37;56.00
47280;BME280;34064;44.942;0.008;2022-12-18T13:39:44;99212.91;;;13.38;55.79
47280;BME280;34064;44.942;0.008;2022-12-18T13:44:58;99210.97;;;13.52;55.88
47280;BME280;34064;44.942;0.008;2022-12-18T13:47:36;99202.09;;;13.51;56.07
47280;BME280;34064;44.942;0.008;2022-12-18T13:50:32;99206.81;;;13.59;55.83
47280;BME280;34064;44.942;0.008;2022-12-18T13:52:59;99206.56;;;13.62;55.81
47280;BME280;34064;44.942;0.008;2022-12-18T13:55:26;99201.25;;;13.62;55.48
47280;BME280;34064;44.942;0.008;2022-12-18T13:58:04;99203.31;;;13.59;55.59
47280;BME280;34064;44.942;0.008;2022-12-18T14:00:31;99204.41;;;13.56;55.56
47280;BME280;34064;44.942;0.008;2022-12-18T14:02:59;99201.50;;;13.48;55.83
47280;BME280;34064;44.942;0.008;2022-12-18T14:05:30;99188.72;;;13.63;55.63
47280;BME280;34064;44.942;0.008;2022-12-18T14:08:08;99178.38;;;13.69;55.92
47280;BME280;34064;44.942;0.008;2022-12-18T14:10:39;99175.66;;;13.81;55.84
47280;BME280;34064;44.942;0.008;2022-12-18T14:13:08;99175.63;;;13.92;55.93
47280;BME280;34064;44.942;0.008;2022-12-18T14:15:40;99183.88;;;13.89;55.80
47280;BME280;34064;44.942;0.008;2022-12-18T14:21:00;99195.91;;;13.83;55.76
47280;BME280;34064;44.942;0.008;2022-12-18T14:23:34;99184.66;;;13.80;55.69
47280;BME280;34064;44.942;0.008;2022-12-18T14:26:39;99188.81;;;13.72;55.73
47280;BME280;34064;44.942;0.008;2022-12-18T14:32:12;99180.13;;;13.59;56.35
47280;BME280;34064;44.942;0.008;2022-12-18T14:34:42;99190.06;;;13.57;56.12
47280;BME280;34064;44.942;0.008;2022-12-18T14:37:11;99192.88;;;13.55;56.24
47280;BME280;34064;44.942;0.008;2022-12-18T14:39:38;99195.09;;;13.50;56.36
47280;BME280;34064;44.942;0.008;2022-12-18T14:42:04;99185.41;;;13.49;56.49
47280;BME280;34064;44.942;0.008;2022-12-18T14:44:31;99184.66;;;13.47;56.69
47280;BME280;34064;44.942;0.008;2022-12-18T14:46:57;99193.06;;;13.43;56.88